Time;durP1;ratioP1;P1;durP2;ratioP2;P2;SDS_P1;SDS_P2;PMS_P1;PMS_P2;Temp;Humidity;BMP_temperature;BMP_pressure;BME280_temperature;BME280_humidity;BME280_pressure;Samples;Min_cycle;Max_cycle;Signal;HPM_P1;HPM_P2
2022/11/14 00:01:48;;;;;;;16.58;7.93;;;;;;;11.29;89.60;101513.47;4963134;28;20195;-72
2022/11/14 00:04:32;;;;;;;16.20;6.45;;;;;;;11.14;89.56;101514.94;4970962;28;20415;-71
2022/11/14 00:07:16;;;;;;;18.15;7.88;;;;;;;11.16;90.05;101518.09;4969821;28;20061;-72
2022/11/14 00:10:00;;;;;;;22.17;7.05;;;;;;;11.20;89.62;101513.59;4957755;28;20117;-72
2022/11/14 00:12:45;;;;;;;15.68;7.53;;;;;;;11.17;89.48;101500.78;4969517;28;20550;-73
2022/11/14 00:15:29;;;;;;;13.05;6.22;;;;;;;11.06;90.21;101506.94;4961385;28;20517;-73
2022/11/14 00:18:13;;;;;;;17.88;8.15;;;;;;;10.94;89.51;101499.63;4944603;28;20045;-72
2022/11/14 00:20:57;;;;;;;18.55;7.93;;;;;;;10.89;90.11;101495.28;4967567;28;20599;-73
2022/11/14 00:23:41;;;;;;;17.45;7.20;;;;;;;10.84;90.82;101492.78;4971572;28;20584;-72
2022/11/14 00:26:25;;;;;;;19.45;7.30;;;;;;;10.67;91.25;101486.81;4965157;28;20089;-71
2022/11/14 00:29:13;;;;;;;15.52;6.95;;;;;;;10.88;90.75;101477.53;4965249;28;20049;-71
2022/11/14 00:31:57;;;;;;;15.32;6.22;;;;;;;10.73;90.69;101480.09;4964028;28;20108;-71
2022/11/14 00:34:41;;;;;;;17.80;7.07;;;;;;;10.84;91.01;101468.53;5009323;28;20049;-72
2022/11/14 00:37:25;;;;;;;16.92;7.03;;;;;;;10.91;90.31;101465.28;5008930;28;20087;-71
2022/11/14 00:40:10;;;;;;;16.33;6.97;;;;;;;10.88;91.06;101465.94;5005422;28;20049;-72
2022/11/14 00:42:54;;;;;;;21.15;9.02;;;;;;;10.89;90.30;101460.25;5012514;28;20049;-72
2022/11/14 00:45:38;;;;;;;21.13;8.45;;;;;;;10.80;90.74;101467.63;5006350;28;20053;-71
2022/11/14 00:48:22;;;;;;;22.38;7.60;;;;;;;10.63;91.08;101472.44;5011533;28;20788;-71
2022/11/14 00:51:06;;;;;;;17.60;6.50;;;;;;;10.67;90.81;101463.34;5006205;28;20057;-72
2022/11/14 00:53:50;;;;;;;15.02;6.82;;;;;;;10.73;91.59;101464.72;5021097;28;20053;-72
2022/11/14 00:56:34;;;;;;;16.33;7.57;;;;;;;10.83;91.09;101461.59;5011431;28;20501;-73
2022/11/14 00:59:19;;;;;;;14.35;6.78;;;;;;;10.90;90.53;101456.41;5010781;28;20095;-73
2022/11/14 01:02:03;;;;;;;19.10;6.97;;;;;;;10.68;91.21;101451.44;5012026;28;20099;-71
2022/11/14 01:04:47;;;;;;;18.30;8.23;;;;;;;10.80;90.71;101456.84;5010391;28;20125;-71
2022/11/14 01:07:31;;;;;;;15.63;7.35;;;;;;;10.82;90.19;101446.53;5001655;28;20169;-71
2022/11/14 01:10:16;;;;;;;20.10;8.63;;;;;;;10.48;92.03;101438.06;5010447;28;20823;-71
2022/11/14 01:13:00;;;;;;;16.70;6.43;;;;;;;10.70;91.02;101433.03;5001215;28;20184;-71
2022/11/14 01:15:47;;;;;;;16.75;7.35;;;;;;;10.71;91.27;101433.84;5011559;28;20048;-72
2022/11/14 01:18:31;;;;;;;21.60;7.40;;;;;;;10.59;91.63;101431.13;5009167;28;20103;-71
2022/11/14 01:21:15;;;;;;;17.15;8.00;;;;;;;10.76;91.36;101423.63;5004565;28;20123;-72
2022/11/14 01:23:59;;;;;;;24.38;7.88;;;;;;;10.82;90.20;101433.06;5008402;28;20128;-72
2022/11/14 01:26:44;;;;;;;18.60;7.82;;;;;;;10.70;91.42;101424.97;5010389;28;20060;-71
2022/11/14 01:29:28;;;;;;;21.02;7.25;;;;;;;10.59;92.01;101418.47;5010229;28;20183;-72
2022/11/14 01:32:11;;;;;;;15.25;6.60;;;;;;;10.79;91.65;101417.56;5008396;28;20045;-72
2022/11/14 01:34:55;;;;;;;21.65;8.23;;;;;;;10.82;91.47;101418.78;5008968;28;20044;-72
2022/11/14 01:37:39;;;;;;;19.60;7.55;;;;;;;10.71;91.15;101402.31;5011264;28;20119;-72
2022/11/14 01:40:24;;;;;;;16.80;8.50;;;;;;;10.61;91.53;101408.13;5011754;28;20056;-71
2022/11/14 01:43:22;;;;;;;18.95;7.88;;;;;;;10.56;91.58;101402.19;5004146;28;20489;-71
2022/11/14 01:46:32;;;;;;;18.65;8.07;;;;;;;10.83;90.60;101398.81;5006812;28;20044;-72
2022/11/14 01:49:20;;;;;;;26.77;7.72;;;;;;;10.72;90.36;101395.03;5008438;28;20048;-72
2022/11/14 01:52:10;;;;;;;20.10;7.60;;;;;;;10.72;90.54;101397.72;5010905;28;20053;-71
2022/11/14 01:54:58;;;;;;;18.77;7.65;;;;;;;10.62;91.91;101385.47;5006211;28;20044;-72
2022/11/14 01:57:46;;;;;;;17.33;8.50;;;;;;;10.60;91.74;101376.94;5010536;28;20041;-72
2022/11/14 02:00:30;;;;;;;20.27;8.02;;;;;;;10.47;92.00;101374.59;5009744;28;20072;-72
2022/11/14 02:03:16;;;;;;;18.95;7.72;;;;;;;10.40;92.36;101369.75;5010675;28;20088;-71
2022/11/14 02:06:01;;;;;;;17.33;6.70;;;;;;;10.54;91.88;101364.81;5009449;28;20048;-71
2022/11/14 02:08:47;;;;;;;19.30;7.85;;;;;;;10.45;91.54;101361.44;5041549;22;20052;-65
2022/11/14 02:11:35;;;;;;;16.25;6.93;;;;;;;10.60;91.40;101351.91;5022349;28;20095;-65
2022/11/14 02:14:19;;;;;;;23.15;8.23;;;;;;;10.68;91.52;101353.72;5021164;28;20049;-66
2022/11/14 02:17:03;;;;;;;26.20;8.27;;;;;;;10.76;90.66;101345.50;5029814;28;20044;-65
2022/11/14 02:20:13;;;;;;;14.98;6.85;;;;;;;10.80;90.80;101351.03;5008990;28;20088;-65
2022/11/14 02:22:57;;;;;;;20.35;8.38;;;;;;;10.81;90.69;101347.97;5007539;28;20413;-65
2022/11/14 02:25:41;;;;;;;20.60;7.75;;;;;;;11.01;90.18;101332.78;5004369;28;20422;-66
2022/11/14 02:28:25;;;;;;;17.77;7.25;;;;;;;10.98;90.28;101329.97;5006999;28;20045;-66
2022/11/14 02:31:10;;;;;;;19.02;8.50;;;;;;;10.60;91.43;101336.56;5008816;28;20052;-66
2022/11/14 02:33:54;;;;;;;22.58;9.18;;;;;;;10.48;91.40;101331.16;5005473;28;20521;-65
2022/11/14 02:36:38;;;;;;;21.67;8.02;;;;;;;10.72;91.11;101335.75;5000441;28;20048;-66
2022/11/14 02:39:22;;;;;;;22.40;8.77;;;;;;;10.71;90.93;101326.88;5008102;28;20099;-65
2022/11/14 02:42:09;;;;;;;16.65;7.82;;;;;;;10.74;90.89;101328.13;5013962;28;20057;-66
2022/11/14 02:44:53;;;;;;;18.77;7.72;;;;;;;10.70;91.37;101322.59;5012360;28;20387;-66
2022/11/14 02:47:37;;;;;;;22.08;7.60;;;;;;;10.73;90.71;101323.84;5008676;28;20073;-66
2022/11/14 02:50:21;;;;;;;20.95;8.95;;;;;;;10.78;89.90;101313.63;5012432;28;20096;-66
2022/11/14 02:53:05;;;;;;;23.70;7.25;;;;;;;10.73;91.10;101313.06;5006452;28;20095;-66
2022/11/14 02:55:49;;;;;;;18.52;8.18;;;;;;;10.48;91.67;101315.00;5011412;28;20053;-66
2022/11/14 02:58:33;;;;;;;21.92;8.43;;;;;;;10.62;91.29;101299.28;5007815;28;20509;-66
2022/11/14 03:01:17;;;;;;;20.08;8.43;;;;;;;10.70;91.48;101295.66;5008172;28;20084;-65
2022/11/14 03:04:01;;;;;;;22.80;8.00;;;;;;;10.63;91.23;101292.78;5012550;28;20454;-65
2022/11/14 03:06:45;;;;;;;22.02;8.32;;;;;;;10.73;90.79;101284.22;5003876;28;20095;-64
2022/11/14 03:09:29;;;;;;;21.38;8.75;;;;;;;10.67;91.11;101288.28;5012876;28;20173;-64
2022/11/14 03:12:17;;;;;;;17.75;7.60;;;;;;;10.80;90.66;101276.34;5025844;28;20116;-65
2022/11/14 03:15:05;;;;;;;18.33;8.30;;;;;;;10.78;90.01;101278.59;5011913;28;20125;-65
2022/11/14 03:17:50;;;;;;;24.10;8.60;;;;;;;10.74;90.92;101266.94;5023541;28;20048;-64
2022/11/14 03:20:34;;;;;;;22.15;8.30;;;;;;;10.73;90.09;101260.00;5008508;28;20113;-64
2022/11/14 03:23:18;;;;;;;17.35;7.43;;;;;;;10.81;89.91;101263.66;5008996;28;20057;-65
2022/11/14 03:26:05;;;;;;;19.92;8.68;;;;;;;10.85;90.19;101253.78;5012684;28;20463;-65
2022/11/14 03:28:49;;;;;;;21.70;8.82;;;;;;;10.84;89.91;101252.19;5012221;28;20572;-64
2022/11/14 03:31:33;;;;;;;23.05;7.95;;;;;;;10.88;89.34;101248.50;5005840;28;20059;-64
2022/11/14 03:34:17;;;;;;;19.33;8.20;;;;;;;10.89;90.00;101247.38;5009904;28;20076;-65
2022/11/14 03:37:01;;;;;;;21.30;9.50;;;;;;;10.87;90.17;101241.53;5011521;28;20060;-64
2022/11/14 03:39:44;;;;;;;18.45;8.95;;;;;;;10.77;89.42;101235.84;5011902;28;20095;-64
2022/11/14 03:42:32;;;;;;;21.42;7.88;;;;;;;10.89;89.37;101243.91;5013155;28;20044;-64
2022/11/14 03:45:16;;;;;;;17.67;7.53;;;;;;;10.85;89.02;101234.91;5007838;28;20052;-64
2022/11/14 03:48:00;;;;;;;14.93;6.72;;;;;;;10.85;89.65;101238.41;5013641;28;20091;-64
2022/11/14 03:50:44;;;;;;;16.35;6.78;;;;;;;10.65;90.51;101233.97;5011715;28;20108;-65
2022/11/14 03:53:28;;;;;;;18.02;8.13;;;;;;;10.56;90.76;101238.69;5012175;28;20553;-64
2022/11/14 03:56:11;;;;;;;19.67;8.35;;;;;;;10.58;90.84;101227.59;5010412;28;20537;-64
2022/11/14 03:58:56;;;;;;;23.15;8.50;;;;;;;10.47;90.46;101221.88;5009650;28;20044;-65
2022/11/14 04:01:40;;;;;;;24.23;8.45;;;;;;;10.34;91.24;101230.31;5011452;28;20063;-64
2022/11/14 04:04:23;;;;;;;20.75;8.00;;;;;;;10.45;90.96;101226.06;5011204;28;20071;-65
2022/11/14 04:07:10;;;;;;;20.38;8.63;;;;;;;10.48;91.42;101219.97;5006471;28;20052;-65
2022/11/14 04:09:54;;;;;;;15.80;7.32;;;;;;;10.43;91.81;101223.66;5012954;28;20053;-65
2022/11/14 04:12:38;;;;;;;19.42;7.35;;;;;;;10.45;91.32;101224.13;5010814;28;20140;-65
2022/11/14 04:15:22;;;;;;;17.17;7.47;;;;;;;10.56;90.71;101219.06;5008932;28;20045;-64
2022/11/14 04:18:06;;;;;;;24.30;8.52;;;;;;;10.47;90.92;101221.88;5010824;28;20072;-64
2022/11/14 04:20:51;;;;;;;17.83;7.57;;;;;;;10.54;91.06;101216.72;5010557;28;20165;-64
2022/11/14 04:23:35;;;;;;;21.98;8.10;;;;;;;10.43;91.17;101212.13;5010179;28;20045;-64
2022/11/14 04:26:19;;;;;;;21.15;8.45;;;;;;;10.59;90.44;101208.38;4998690;28;20069;-65
2022/11/14 04:29:03;;;;;;;24.33;9.27;;;;;;;10.63;89.80;101216.56;5012220;28;20045;-65
2022/11/14 04:31:47;;;;;;;18.48;7.30;;;;;;;10.58;90.10;101198.75;5008415;28;20073;-65
2022/11/14 04:34:31;;;;;;;20.77;8.38;;;;;;;10.69;90.09;101196.34;5010210;28;20044;-65
2022/11/14 04:37:15;;;;;;;21.88;7.88;;;;;;;10.76;89.51;101191.94;5009447;28;20073;-64
2022/11/14 04:40:01;;;;;;;21.63;7.72;;;;;;;10.44;90.42;101190.25;5010696;28;20100;-63
2022/11/14 04:42:45;;;;;;;22.15;8.48;;;;;;;10.36;90.96;101188.47;5012226;28;20053;-64
2022/11/14 04:45:29;;;;;;;19.15;8.57;;;;;;;10.40;90.13;101181.28;5010728;28;20068;-65
2022/11/14 04:48:13;;;;;;;19.92;8.48;;;;;;;10.49;90.11;101184.63;5007709;28;20103;-65
2022/11/14 04:50:56;;;;;;;19.38;7.93;;;;;;;10.54;90.86;101178.22;5010167;28;20064;-65
2022/11/14 04:53:40;;;;;;;17.85;7.50;;;;;;;10.52;90.41;101186.66;5012005;28;20489;-65
2022/11/14 04:56:24;;;;;;;22.13;8.07;;;;;;;10.49;90.35;101184.63;5010567;28;20080;-65
2022/11/14 04:59:08;;;;;;;21.00;8.55;;;;;;;10.50;90.19;101188.91;5009113;28;20165;-64
2022/11/14 05:01:52;;;;;;;17.65;8.82;;;;;;;10.33;90.58;101177.59;5011573;28;20060;-65
2022/11/14 05:04:36;;;;;;;22.30;8.02;;;;;;;10.08;91.48;101170.66;5006616;28;20549;-64
2022/11/14 05:07:20;;;;;;;19.48;8.95;;;;;;;10.12;92.24;101169.69;5009242;28;20564;-64
2022/11/14 05:10:05;;;;;;;18.30;8.45;;;;;;;10.29;91.45;101172.13;5012286;28;20045;-64
2022/11/14 05:12:53;;;;;;;23.70;8.43;;;;;;;10.30;91.19;101172.91;5010119;28;20073;-64
2022/11/14 05:15:57;;;;;;;22.17;8.60;;;;;;;10.33;91.40;101173.00;5010982;28;20129;-64
2022/11/14 05:18:41;;;;;;;20.42;8.52;;;;;;;10.42;90.66;101157.50;4928758;29;20063;-65
2022/11/14 05:21:25;;;;;;;15.82;7.63;;;;;;;10.37;90.66;101160.44;4931161;29;20125;-64
2022/11/14 05:24:09;;;;;;;18.98;7.95;;;;;;;10.40;90.63;101161.66;4928988;29;20127;-65
2022/11/14 05:26:53;;;;;;;21.45;8.65;;;;;;;10.28;89.77;101151.69;4930908;29;20091;-64
2022/11/14 05:29:37;;;;;;;18.50;7.72;;;;;;;10.30;91.00;101162.91;4931103;29;20054;-65
2022/11/14 05:32:21;;;;;;;23.55;9.68;;;;;;;9.64;93.22;101157.00;4930939;29;20050;-64
2022/11/14 05:35:06;;;;;;;28.63;9.70;;;;;;;9.72;94.04;101161.47;4931633;29;20051;-64
2022/11/14 05:37:50;;;;;;;18.98;8.55;;;;;;;10.00;93.71;101153.53;4928709;29;20074;-65
2022/11/14 05:40:54;;;;;;;19.10;7.53;;;;;;;10.14;92.30;101153.97;4931438;29;20066;-65
2022/11/14 05:43:39;;;;;;;28.13;9.13;;;;;;;10.28;91.65;101149.00;4906426;29;20050;-64
2022/11/14 05:46:23;;;;;;;19.42;7.78;;;;;;;10.22;91.82;101139.59;4891321;29;20577;-64
2022/11/14 05:49:07;;;;;;;14.93;6.78;;;;;;;10.11;90.72;101143.88;4879418;29;20095;-65
2022/11/14 05:51:51;;;;;;;17.95;7.43;;;;;;;10.17;91.09;101141.75;4891137;29;20059;-65
2022/11/14 05:54:35;;;;;;;22.85;8.63;;;;;;;10.19;91.75;101156.44;4905521;29;20054;-65
2022/11/14 05:57:21;;;;;;;15.93;8.45;;;;;;;10.27;91.42;101142.06;4915947;29;20086;-64
2022/11/14 06:00:06;;;;;;;15.70;8.10;;;;;;;10.16;91.62;101154.44;4923683;29;20182;-64
2022/11/14 06:03:14;;;;;;;20.98;8.60;;;;;;;10.30;91.05;101159.44;4928574;29;20058;-64
2022/11/14 06:06:03;;;;;;;17.83;7.88;;;;;;;10.09;90.70;101154.16;4872929;29;20051;-64
2022/11/14 06:08:47;;;;;;;19.17;8.02;;;;;;;9.79;91.90;101153.63;4877206;29;20401;-65
2022/11/14 06:11:31;;;;;;;27.35;9.20;;;;;;;9.68;92.97;101157.09;4864724;29;20300;-65
2022/11/14 06:14:15;;;;;;;20.88;7.53;;;;;;;9.91;92.05;101145.56;4867877;29;20091;-65
2022/11/14 06:17:00;;;;;;;18.83;7.75;;;;;;;9.82;92.10;101155.66;4872898;29;20568;-65
2022/11/14 06:19:44;;;;;;;22.80;8.27;;;;;;;9.65;93.23;101155.09;4886968;29;20054;-65
2022/11/14 06:22:28;;;;;;;20.30;7.95;;;;;;;9.82;93.14;101152.97;4937112;29;20134;-65
2022/11/14 06:25:12;;;;;;;23.95;8.43;;;;;;;9.98;92.45;101155.75;4937700;29;20131;-65
2022/11/14 06:28:00;;;;;;;24.67;9.60;;;;;;;10.07;91.89;101155.63;4931396;28;20058;-63
2022/11/14 06:30:44;;;;;;;23.23;9.20;;;;;;;9.92;92.45;101152.53;4943499;29;20126;-65
2022/11/14 06:33:33;;;;;;;28.42;10.55;;;;;;;10.08;92.34;101159.91;4948223;29;20285;-65
2022/11/14 06:36:18;;;;;;;22.88;10.93;;;;;;;9.67;94.06;101150.16;4941940;29;20087;-65
2022/11/14 06:39:01;;;;;;;27.75;9.77;;;;;;;9.60;95.15;101156.09;4943873;28;20042;-65
2022/11/14 06:41:46;;;;;;;20.10;8.18;;;;;;;9.90;93.96;101156.66;4944244;28;20132;-65
2022/11/14 06:44:29;;;;;;;25.30;11.00;;;;;;;9.87;93.03;101149.28;5004613;28;20092;-65
2022/11/14 06:47:13;;;;;;;26.20;9.82;;;;;;;9.96;93.12;101144.56;4999710;28;20513;-65
2022/11/14 06:49:57;;;;;;;24.67;8.70;;;;;;;10.07;92.32;101152.94;5006930;28;20096;-65
2022/11/14 06:52:41;;;;;;;23.95;8.73;;;;;;;10.07;92.66;101148.34;5007013;28;20049;-66
2022/11/14 06:55:25;;;;;;;27.95;9.48;;;;;;;10.02;92.93;101148.59;5003509;28;20105;-65
2022/11/14 06:58:09;;;;;;;21.52;8.38;;;;;;;10.03;92.26;101155.53;5004945;28;20045;-65
2022/11/14 07:00:53;;;;;;;22.83;9.18;;;;;;;10.06;91.86;101146.78;5004607;28;20449;-66
2022/11/14 07:03:37;;;;;;;21.30;9.07;;;;;;;10.09;92.16;101150.69;5007041;28;20482;-65
2022/11/14 07:06:24;;;;;;;28.80;9.82;;;;;;;9.74;92.90;101156.56;5001554;28;20053;-66
2022/11/14 07:09:09;;;;;;;24.02;8.57;;;;;;;9.80;93.53;101147.13;5005266;28;20091;-65
2022/11/14 07:11:53;;;;;;;21.90;8.48;;;;;;;9.85;93.00;101162.28;5000122;28;20137;-66
2022/11/14 07:14:37;;;;;;;22.95;9.13;;;;;;;10.01;92.53;101152.38;5003251;28;20099;-65
2022/11/14 07:17:21;;;;;;;20.05;8.65;;;;;;;10.21;91.42;101148.81;4991319;28;20529;-65
2022/11/14 07:20:05;;;;;;;18.88;8.52;;;;;;;10.16;90.67;101140.97;5003830;28;20064;-65
2022/11/14 07:22:49;;;;;;;22.63;8.52;;;;;;;10.24;91.12;101147.34;5022493;28;20180;-65
2022/11/14 07:25:33;;;;;;;19.83;8.32;;;;;;;10.15;91.27;101147.47;5011644;28;20104;-66
2022/11/14 07:28:17;;;;;;;28.00;9.55;;;;;;;10.10;91.65;101153.09;5006091;28;20542;-66
2022/11/14 07:31:02;;;;;;;23.30;8.35;;;;;;;10.10;91.47;101158.47;5011802;28;20072;-65
2022/11/14 07:33:47;;;;;;;22.95;8.70;;;;;;;9.92;92.31;101155.22;5012311;28;20060;-65
2022/11/14 07:36:31;;;;;;;31.23;10.00;;;;;;;9.98;91.69;101155.75;5011311;28;20048;-64
2022/11/14 07:39:15;;;;;;;23.70;9.27;;;;;;;9.89;92.25;101155.88;5006269;28;20184;-64
2022/11/14 07:41:59;;;;;;;16.02;8.23;;;;;;;9.97;92.26;101157.66;5012358;28;20048;-65
2022/11/14 07:44:43;;;;;;;28.70;9.85;;;;;;;10.11;91.60;101151.94;5012075;28;20052;-64
2022/11/14 07:47:27;;;;;;;23.30;9.88;;;;;;;10.16;91.85;101150.94;5006663;28;20052;-64
2022/11/14 07:50:11;;;;;;;25.83;9.68;;;;;;;10.20;91.28;101144.53;5024286;28;20056;-64
2022/11/14 07:52:56;;;;;;;22.83;9.52;;;;;;;10.15;91.50;101152.84;5004637;28;20402;-64
2022/11/14 07:55:40;;;;;;;22.98;9.32;;;;;;;10.21;90.71;101148.81;4999691;28;20057;-65
2022/11/14 07:58:24;;;;;;;21.63;9.10;;;;;;;10.11;91.27;101140.41;5008529;28;20052;-64
2022/11/14 08:01:10;;;;;;;21.27;8.18;;;;;;;10.02;91.56;101146.69;5009874;28;20045;-64
2022/11/14 08:03:54;;;;;;;27.55;9.60;;;;;;;10.03;91.66;101140.16;5010238;28;20171;-64
2022/11/14 08:06:38;;;;;;;22.60;8.68;;;;;;;9.96;91.33;101144.56;5012435;28;20128;-64
2022/11/14 08:09:22;;;;;;;20.63;8.35;;;;;;;10.14;91.63;101142.44;5012704;22;20061;-71
2022/11/14 08:12:06;;;;;;;23.40;9.07;;;;;;;10.15;90.67;101141.28;5001276;28;20062;-70
2022/11/14 08:14:50;;;;;;;20.13;8.68;;;;;;;10.33;89.87;101137.22;4992158;28;20053;-72
2022/11/14 08:17:34;;;;;;;18.90;7.72;;;;;;;10.16;89.55;101138.28;4992257;28;20130;-74
2022/11/14 08:20:18;;;;;;;23.20;9.68;;;;;;;9.99;90.49;101127.72;4985831;28;20132;-73
2022/11/14 08:23:05;;;;;;;18.63;8.40;;;;;;;10.09;90.87;101129.16;4991957;28;20536;-74
2022/11/14 08:25:50;;;;;;;28.33;10.25;;;;;;;10.04;91.00;101122.88;4976815;28;20129;-74
2022/11/14 08:28:34;;;;;;;20.77;8.30;;;;;;;10.02;90.68;101132.44;4993578;28;20045;-75
2022/11/14 08:31:19;;;;;;;20.27;7.82;;;;;;;10.22;91.18;101128.06;4983944;28;20545;-74
2022/11/14 08:34:03;;;;;;;21.77;8.50;;;;;;;10.30;89.73;101124.47;4976507;28;20167;-72
2022/11/14 08:36:48;;;;;;;19.13;9.45;;;;;;;10.30;89.49;101130.59;4988776;28;20175;-73
2022/11/14 08:39:32;;;;;;;20.20;7.50;;;;;;;10.29;90.00;101129.06;4986078;28;20049;-73
2022/11/14 08:42:16;;;;;;;24.48;8.13;;;;;;;10.36;89.70;101136.53;4987243;28;20518;-72
2022/11/14 08:44:59;;;;;;;29.08;8.90;;;;;;;10.21;89.72;101131.88;4980869;28;20045;-72
2022/11/14 08:47:50;;;;;;;19.42;8.93;;;;;;;10.21;90.72;101131.88;4980664;28;20100;-73
2022/11/14 08:50:34;;;;;;;17.23;8.68;;;;;;;10.23;90.88;101138.47;4987497;28;20057;-73
2022/11/14 08:53:19;;;;;;;22.23;8.70;;;;;;;10.22;90.12;101139.59;4986420;28;20049;-73
2022/11/14 08:56:03;;;;;;;19.77;8.20;;;;;;;10.16;90.49;101126.72;4982920;28;20057;-71
2022/11/14 08:58:47;;;;;;;19.80;8.20;;;;;;;10.30;90.08;101121.78;4981443;28;20077;-74
2022/11/14 09:01:32;;;;;;;21.67;9.10;;;;;;;10.34;89.19;101117.25;4988645;28;20149;-73
2022/11/14 09:04:15;;;;;;;25.02;9.60;;;;;;;10.32;90.13;101112.22;4994037;28;20096;-73
2022/11/14 09:06:59;;;;;;;32.20;9.93;;;;;;;10.01;90.94;101110.13;4992240;28;20541;-72
2022/11/14 09:09:43;;;;;;;22.42;7.45;;;;;;;10.06;90.94;101111.81;4979451;28;20125;-72
2022/11/14 09:12:28;;;;;;;24.15;8.30;;;;;;;9.99;91.10;101116.97;4986395;28;20573;-70
2022/11/14 09:15:11;;;;;;;22.30;8.27;;;;;;;10.02;91.99;101109.03;4984232;28;20065;-72
2022/11/14 09:17:56;;;;;;;32.45;10.27;;;;;;;10.02;91.51;101108.22;4980926;28;20057;-72
2022/11/14 09:20:40;;;;;;;22.83;8.40;;;;;;;10.10;91.58;101115.41;4986384;28;20522;-72
2022/11/14 09:23:25;;;;;;;16.65;8.00;;;;;;;10.08;91.11;101108.78;4992486;28;20125;-72
2022/11/14 09:26:09;;;;;;;21.38;7.47;;;;;;;10.04;92.00;101114.81;4985313;28;20057;-70
2022/11/14 09:28:53;;;;;;;20.65;8.80;;;;;;;9.96;91.92;101109.56;4979240;28;20085;-70
2022/11/14 09:31:37;;;;;;;24.33;7.97;;;;;;;9.92;91.80;101106.00;4981446;28;20057;-70
2022/11/14 09:34:21;;;;;;;21.92;8.32;;;;;;;10.09;92.07;101097.66;4985760;28;20096;-73
2022/11/14 09:37:05;;;;;;;18.02;8.52;;;;;;;10.20;91.90;101109.53;4991612;28;20097;-73
2022/11/14 09:39:49;;;;;;;28.20;9.43;;;;;;;10.09;91.59;101092.28;4994654;28;20100;-73
2022/11/14 09:42:42;;;;;;;24.55;9.43;;;;;;;10.00;92.17;101100.50;4997913;28;20394;-73
2022/11/14 09:45:27;;;;;;;24.42;9.77;;;;;;;10.23;91.46;101092.72;4984476;28;20045;-70
2022/11/14 09:48:15;;;;;;;21.23;8.15;;;;;;;10.14;90.91;101083.22;4986259;28;20061;-70
2022/11/14 09:51:14;;;;;;;20.88;8.95;;;;;;;10.24;91.19;101074.69;4991303;28;20061;-73
2022/11/14 09:54:20;;;;;;;15.40;7.40;;;;;;;10.39;90.97;101084.72;4989292;28;20060;-74
2022/11/14 09:57:13;;;;;;;17.52;7.88;;;;;;;10.52;89.98;101084.31;4983659;28;20041;-73
2022/11/14 09:59:57;;;;;;;19.73;7.97;;;;;;;10.61;89.68;101084.94;4990582;28;20582;-73
2022/11/14 10:03:16;;;;;;;23.30;8.55;;;;;;;10.49;89.34;101079.59;4991526;28;20091;-73
2022/11/14 10:06:14;;;;;;;24.17;8.32;;;;;;;10.56;89.32;101081.72;4980894;28;20088;-69
2022/11/14 10:09:29;;;;;;;23.10;8.95;;;;;;;10.64;89.64;101086.19;4990306;28;20068;-70
2022/11/14 10:12:25;;;;;;;24.50;8.93;;;;;;;10.30;89.77;101082.16;4988092;28;20076;-70
2022/11/14 10:15:15;;;;;;;20.45;8.93;;;;;;;10.50;90.26;101080.41;4979724;28;20414;-69
2022/11/14 10:18:25;;;;;;;23.38;8.38;;;;;;;10.59;90.45;101072.94;4986380;28;20406;-70
2022/11/14 10:21:30;;;;;;;26.98;9.35;;;;;;;10.68;89.34;101073.59;4980972;28;20045;-70
2022/11/14 10:24:39;;;;;;;22.73;9.70;;;;;;;10.69;89.47;101062.47;4986429;28;20430;-70
2022/11/14 10:27:36;;;;;;;20.77;9.18;;;;;;;10.90;88.32;101057.63;4993395;28;20073;-72
2022/11/14 10:30:21;;;;;;;19.77;7.72;;;;;;;10.74;89.12;101045.28;4989634;28;20100;-69
2022/11/14 10:33:29;;;;;;;24.48;9.20;;;;;;;10.79;88.54;101045.00;4989231;28;20116;-72
2022/11/14 10:36:19;;;;;;;21.88;9.68;;;;;;;10.76;89.16;101037.63;4988670;28;20072;-69
2022/11/14 10:39:45;;;;;;;23.15;8.25;;;;;;;10.93;89.12;101034.59;4982393;28;20450;-73
2022/11/14 10:42:41;;;;;;;22.05;8.30;;;;;;;11.01;88.38;101019.38;4980256;28;20050;-72
2022/11/14 10:45:48;;;;;;;22.77;8.10;;;;;;;10.90;88.92;101021.81;4978825;28;20041;-72
2022/11/14 10:48:39;;;;;;;21.30;8.90;;;;;;;11.08;88.49;101024.94;4988123;28;20084;-72
2022/11/14 10:51:36;;;;;;;25.38;9.98;;;;;;;11.06;88.35;101021.81;4986226;28;20061;-74
2022/11/14 10:54:31;;;;;;;21.63;8.73;;;;;;;11.14;87.92;101015.47;4989806;28;20056;-72
2022/11/14 10:57:21;;;;;;;20.48;7.93;;;;;;;11.14;87.50;101007.38;4978452;28;20410;-74
2022/11/14 11:00:15;;;;;;;24.08;8.90;;;;;;;11.13;86.83;101008.53;4991800;28;20053;-71
2022/11/14 11:02:59;;;;;;;19.10;8.70;;;;;;;11.13;88.08;101001.19;4989698;28;20049;-70
2022/11/14 11:05:48;;;;;;;27.15;8.15;;;;;;;11.24;86.51;100994.16;4989464;28;20065;-72
2022/11/14 11:11:54;;;;;;;17.05;7.53;;;;;;;11.35;86.57;100983.59;4987757;28;20143;-72
2022/11/14 11:14:38;;;;;;;20.50;9.02;;;;;;;11.56;86.22;100974.06;4988001;28;20683;-70
2022/11/14 11:17:23;;;;;;;21.67;6.82;;;;;;;11.73;86.17;100959.41;4993676;28;20076;-69
2022/11/14 11:20:27;;;;;;;21.20;9.43;;;;;;;11.74;85.06;100959.06;4982284;28;20046;-70
2022/11/14 11:23:11;;;;;;;19.23;8.27;;;;;;;11.82;84.83;100957.28;4976897;28;20136;-70
2022/11/14 11:26:18;;;;;;;18.92;8.50;;;;;;;11.64;84.20;100961.50;4991277;28;20092;-70
2022/11/14 11:29:08;;;;;;;19.30;7.43;;;;;;;11.55;85.45;100963.63;4988554;28;20053;-71
2022/11/14 11:31:55;;;;;;;21.15;7.88;;;;;;;11.67;84.60;100944.66;4986173;28;20125;-71
2022/11/14 11:34:39;;;;;;;17.65;7.80;;;;;;;11.49;85.22;100933.47;4980733;28;20072;-70
2022/11/14 11:37:28;;;;;;;22.05;8.15;;;;;;;11.66;85.46;100937.69;4992953;28;20422;-71
2022/11/14 11:40:17;;;;;;;18.85;7.25;;;;;;;11.81;84.80;100928.72;4989509;28;20464;-71
2022/11/14 11:43:08;;;;;;;28.00;9.60;;;;;;;11.88;84.30;100918.09;4988883;28;20112;-70
2022/11/14 11:45:55;;;;;;;18.70;7.57;;;;;;;12.04;83.71;100916.06;4992421;28;20537;-70
2022/11/14 11:48:39;;;;;;;24.45;7.75;;;;;;;12.09;83.88;100917.69;4991551;28;20085;-70
2022/11/14 11:51:25;;;;;;;17.65;7.43;;;;;;;12.02;83.80;100907.53;4989742;28;20061;-73
2022/11/14 11:54:17;;;;;;;20.02;7.97;;;;;;;12.10;83.14;100903.84;4989755;28;20092;-70
2022/11/14 11:57:08;;;;;;;16.65;7.50;;;;;;;12.10;82.67;100887.66;4993433;28;20041;-72
2022/11/14 12:00:02;;;;;;;23.10;8.98;;;;;;;11.92;82.93;100889.25;4987667;28;20405;-70
2022/11/14 12:02:49;;;;;;;21.90;8.27;;;;;;;12.03;83.60;100898.31;4983129;28;20132;-71
2022/11/14 12:05:33;;;;;;;16.10;7.57;;;;;;;11.93;83.13;100900.81;4992853;28;20049;-70
2022/11/14 12:08:28;;;;;;;25.05;8.90;;;;;;;11.92;83.02;100927.03;4992609;28;20045;-73
2022/11/14 12:11:22;;;;;;;17.08;7.45;;;;;;;12.04;83.21;100921.47;4988771;28;20080;-73
2022/11/14 12:14:33;;;;;;;18.10;7.85;;;;;;;12.10;83.05;100938.19;4993062;28;20080;-73
2022/11/14 12:17:23;;;;;;;15.23;6.40;;;;;;;12.23;82.15;100940.31;4985864;28;20572;-71
2022/11/14 12:20:20;;;;;;;22.40;7.72;;;;;;;12.03;83.61;100930.72;4993852;28;20053;-72
2022/11/14 12:23:22;;;;;;;21.00;8.27;;;;;;;11.99;83.32;100956.84;4998018;28;20096;-73
2022/11/14 12:26:39;;;;;;;21.27;6.40;;;;;;;12.06;83.41;100953.53;4988743;28;20049;-72
2022/11/14 12:29:32;;;;;;;21.77;8.15;;;;;;;12.06;83.55;100942.72;4988659;28;20044;-73
2022/11/14 12:32:40;;;;;;;16.25;7.20;;;;;;;12.12;83.55;100938.56;4987031;28;20046;-72
2022/11/14 12:35:29;;;;;;;18.15;7.32;;;;;;;12.23;82.89;100934.94;4984897;28;20111;-71
2022/11/14 12:38:18;;;;;;;22.98;8.25;;;;;;;12.26;82.69;100939.63;4987799;28;20044;-72
2022/11/14 12:41:02;;;;;;;28.40;8.57;;;;;;;12.08;83.15;100930.41;4978796;28;20178;-72
2022/11/14 12:43:49;;;;;;;21.15;7.53;;;;;;;12.23;83.06;100926.81;4982550;28;20574;-72
2022/11/14 12:47:01;;;;;;;25.52;9.30;;;;;;;12.14;83.30;100926.28;4983515;28;20057;-72
2022/11/14 12:49:46;;;;;;;24.02;8.70;;;;;;;12.14;83.77;100918.19;4978619;28;20114;-72
2022/11/14 12:52:39;;;;;;;21.92;8.68;;;;;;;12.17;83.28;100925.59;4983406;28;20052;-72